createdAt,value
2018-05-29T00:00:00.173Z,0.00
2018-05-29T00:01:00.207Z,0.00
2018-05-29T00:02:00.245Z,0.00
2018-05-29T00:03:00.283Z,0.00
2018-05-29T00:04:00.331Z,0.00
2018-05-29T00:05:00.365Z,0.00
2018-05-29T00:07:00.442Z,0.00
2018-05-29T00:08:00.495Z,0.00
2018-05-29T00:09:00.537Z,0.00
2018-05-29T00:10:00.565Z,0.00
2018-05-29T00:11:00.601Z,0.00
2018-05-29T00:12:00.641Z,0.00
2018-05-29T00:13:00.680Z,0.00
2018-05-29T00:14:00.719Z,0.00
2018-05-29T00:15:00.760Z,0.00
2018-05-29T00:16:00.796Z,0.00
2018-05-29T00:17:00.836Z,0.00
2018-05-29T00:18:00.877Z,0.00
2018-05-29T00:19:00.915Z,0.00
2018-05-29T00:20:00.955Z,0.00
2018-05-29T00:21:00.993Z,0.00
2018-05-29T00:22:01.032Z,0.00
2018-05-29T00:23:01.071Z,0.00
2018-05-29T00:24:01.113Z,0.00
2018-05-29T00:25:01.157Z,0.00
2018-05-29T00:26:01.212Z,0.00
2018-05-29T00:27:01.227Z,0.00
2018-05-29T00:28:01.267Z,0.00
2018-05-29T00:29:01.309Z,0.00
2018-05-29T00:30:01.346Z,0.00
2018-05-29T00:31:01.393Z,0.00
2018-05-29T00:32:01.428Z,0.00
2018-05-29T00:33:01.467Z,0.00
2018-05-29T00:34:01.504Z,0.00
2018-05-29T00:35:01.541Z,0.00
2018-05-29T00:36:01.583Z,0.00
2018-05-29T00:37:01.621Z,0.00
2018-05-29T00:38:01.665Z,0.00
2018-05-29T00:39:01.698Z,0.00
2018-05-29T00:40:01.738Z,0.00
2018-05-29T00:41:01.779Z,0.00
2018-05-29T00:42:01.817Z,0.00
2018-05-29T00:43:01.855Z,0.00
2018-05-29T00:44:01.900Z,0.00
2018-05-29T00:45:01.947Z,0.00
2018-05-29T00:46:01.974Z,0.00
2018-05-29T00:47:02.013Z,0.00
2018-05-29T00:48:02.061Z,0.00
2018-05-29T00:49:02.094Z,0.00
2018-05-29T00:50:02.130Z,0.00
2018-05-29T00:51:02.180Z,0.00
2018-05-29T00:52:02.211Z,0.00
2018-05-29T00:54:02.288Z,0.00
2018-05-29T00:55:02.333Z,0.00
2018-05-29T00:56:02.363Z,0.00
2018-05-29T00:57:02.404Z,0.00
2018-05-29T00:58:02.444Z,0.00
2018-05-29T00:59:02.486Z,0.00
2018-05-29T01:00:02.521Z,0.00
2018-05-29T01:01:02.560Z,0.00
2018-05-29T01:02:02.600Z,0.00
2018-05-29T01:03:02.638Z,0.00
2018-05-29T01:04:02.677Z,0.00
2018-05-29T01:05:02.722Z,0.00
2018-05-29T01:06:02.756Z,0.00
2018-05-29T01:07:02.798Z,0.00
2018-05-29T01:08:02.834Z,0.00
2018-05-29T01:09:02.876Z,0.00
2018-05-29T01:10:02.912Z,0.00
2018-05-29T01:11:02.950Z,0.00
2018-05-29T01:12:02.992Z,0.00
2018-05-29T01:13:03.030Z,0.00
2018-05-29T01:14:03.068Z,0.00
2018-05-29T01:15:03.105Z,0.00
2018-05-29T01:16:03.147Z,0.00
2018-05-29T01:17:03.183Z,0.00
2018-05-29T01:18:03.222Z,0.00
2018-05-29T01:19:03.261Z,0.00
2018-05-29T01:20:03.300Z,0.00
2018-05-29T01:21:03.340Z,0.00
2018-05-29T01:22:03.378Z,0.00
2018-05-29T01:23:03.417Z,0.00
2018-05-29T01:24:03.455Z,0.00
2018-05-29T01:25:03.495Z,0.00
2018-05-29T01:26:03.542Z,0.00
2018-05-29T01:27:03.572Z,0.00
2018-05-29T01:28:03.611Z,0.00
2018-05-29T01:29:03.650Z,0.00
2018-05-29T01:30:03.689Z,0.00
2018-05-29T01:31:03.728Z,0.00
2018-05-29T01:32:03.766Z,0.00
2018-05-29T01:33:03.804Z,0.00
2018-05-29T01:34:03.944Z,0.00
2018-05-29T01:35:03.882Z,0.00
2018-05-29T01:36:03.921Z,0.00
2018-05-29T01:37:03.962Z,0.00
2018-05-29T01:38:04.008Z,0.00
2018-05-29T01:39:04.038Z,0.00
2018-05-29T01:40:04.076Z,0.00
2018-05-29T01:41:04.117Z,0.00
2018-05-29T01:42:04.164Z,0.00
2018-05-29T01:43:04.192Z,0.00
2018-05-29T01:44:04.232Z,0.00
2018-05-29T01:45:04.271Z,0.00
2018-05-29T01:46:04.310Z,0.00
2018-05-29T01:47:04.347Z,0.00
2018-05-29T01:48:04.386Z,0.00
2018-05-29T01:49:04.427Z,0.00
2018-05-29T01:50:04.465Z,0.00
2018-05-29T01:51:04.503Z,0.00
2018-05-29T01:52:04.542Z,0.00
2018-05-29T01:53:04.580Z,0.00
2018-05-29T01:54:04.619Z,0.00
2018-05-29T01:55:04.666Z,0.00
2018-05-29T01:56:04.697Z,0.00
2018-05-29T01:57:04.737Z,0.00
2018-05-29T01:58:04.776Z,0.00
2018-05-29T01:59:04.816Z,0.00
2018-05-29T02:00:04.851Z,0.00
2018-05-29T02:01:04.894Z,0.00
2018-05-29T02:02:04.932Z,0.00
2018-05-29T02:03:04.967Z,0.00
2018-05-29T02:04:05.007Z,0.00
2018-05-29T02:05:05.046Z,0.00
2018-05-29T02:06:05.087Z,0.00
2018-05-29T02:07:05.124Z,0.00
2018-05-29T02:08:05.162Z,0.00
2018-05-29T02:09:05.205Z,0.00
2018-05-29T02:10:05.243Z,0.00
2018-05-29T02:11:05.287Z,0.00
2018-05-29T02:12:05.330Z,0.00
2018-05-29T02:13:05.358Z,0.00
2018-05-29T02:14:05.400Z,0.00
2018-05-29T02:15:05.432Z,0.00
2018-05-29T02:16:05.473Z,0.00
2018-05-29T02:17:05.512Z,0.00
2018-05-29T02:18:05.552Z,0.00
2018-05-29T02:19:05.589Z,0.00
2018-05-29T02:20:05.640Z,0.00
2018-05-29T02:21:05.670Z,0.00
2018-05-29T02:22:05.704Z,0.00
2018-05-29T02:23:05.742Z,0.00
2018-05-29T02:24:05.782Z,0.00
2018-05-29T02:25:05.817Z,0.00
2018-05-29T02:26:05.857Z,0.00
2018-05-29T02:27:05.910Z,0.00
2018-05-29T02:28:05.934Z,0.00
2018-05-29T02:29:05.972Z,0.00
2018-05-29T02:30:06.015Z,0.00
2018-05-29T02:31:06.049Z,0.00
2018-05-29T02:32:06.090Z,0.00
2018-05-29T02:33:06.131Z,0.00
2018-05-29T02:34:06.164Z,0.00
2018-05-29T02:35:06.203Z,0.00
2018-05-29T02:36:06.245Z,0.00
2018-05-29T02:37:06.280Z,0.00
2018-05-29T02:38:06.319Z,0.00
2018-05-29T02:39:06.358Z,0.00
2018-05-29T02:40:06.397Z,0.00
2018-05-29T02:41:06.436Z,0.00
2018-05-29T02:42:06.475Z,0.00
2018-05-29T02:43:06.519Z,0.00
2018-05-29T02:44:06.552Z,0.00
2018-05-29T02:45:06.591Z,0.00
2018-05-29T02:46:06.629Z,0.00
2018-05-29T02:47:06.668Z,0.00
2018-05-29T02:48:06.715Z,0.00
2018-05-29T02:49:06.745Z,0.00
2018-05-29T02:50:06.783Z,0.00
2018-05-29T02:51:06.821Z,0.00
2018-05-29T02:52:06.860Z,0.00
2018-05-29T02:53:06.897Z,0.00
2018-05-29T02:54:06.936Z,0.00
2018-05-29T02:55:06.975Z,0.00
2018-05-29T02:56:07.020Z,0.00
2018-05-29T02:57:07.051Z,0.00
2018-05-29T02:58:07.092Z,0.00
2018-05-29T02:59:07.128Z,0.00
2018-05-29T03:00:07.167Z,0.00
2018-05-29T03:01:07.210Z,0.00
2018-05-29T03:02:07.253Z,0.00
2018-05-29T03:03:07.292Z,0.00
2018-05-29T03:04:07.323Z,0.00
2018-05-29T03:05:07.359Z,0.00
2018-05-29T03:06:07.401Z,0.00
2018-05-29T03:07:07.462Z,5.63
2018-05-29T03:08:07.475Z,5.63
2018-05-29T03:09:07.515Z,5.63
2018-05-29T03:10:07.554Z,5.63
2018-05-29T03:11:07.597Z,5.63
2018-05-29T03:12:07.628Z,5.63
2018-05-29T03:13:07.667Z,5.63
2018-05-29T03:14:07.708Z,5.63
2018-05-29T03:15:07.746Z,5.63
2018-05-29T03:16:07.785Z,11.25
2018-05-29T03:17:07.822Z,11.25
2018-05-29T03:18:07.863Z,11.25
2018-05-29T03:19:07.898Z,11.25
2018-05-29T03:20:07.937Z,11.25
2018-05-29T03:21:07.976Z,11.25
2018-05-29T03:22:08.014Z,11.25
2018-05-29T03:23:08.052Z,16.88
2018-05-29T03:24:08.093Z,16.88
2018-05-29T03:25:08.129Z,16.88
2018-05-29T03:26:08.167Z,16.88
2018-05-29T03:27:08.205Z,22.50
2018-05-29T03:28:08.243Z,22.50
2018-05-29T03:29:08.281Z,22.50
2018-05-29T03:30:08.322Z,22.50
2018-05-29T03:31:08.367Z,22.50
2018-05-29T03:32:08.402Z,28.13
2018-05-29T03:33:08.437Z,28.13
2018-05-29T03:34:08.477Z,28.13
2018-05-29T03:35:08.513Z,28.13
2018-05-29T03:36:08.553Z,33.75
2018-05-29T03:37:08.591Z,33.75
2018-05-29T03:38:08.628Z,33.75
2018-05-29T03:39:08.667Z,33.75
2018-05-29T03:40:08.709Z,39.38
2018-05-29T03:41:08.748Z,39.38
2018-05-29T03:42:08.786Z,39.38
2018-05-29T03:43:08.821Z,39.38
2018-05-29T03:44:08.860Z,45.00
2018-05-29T03:45:08.898Z,45.00
2018-05-29T03:46:08.937Z,45.00
2018-05-29T03:47:08.976Z,45.00
2018-05-29T03:48:09.015Z,50.63
2018-05-29T03:49:09.054Z,50.63
2018-05-29T03:50:09.092Z,50.63
2018-05-29T03:51:09.129Z,50.63
2018-05-29T03:52:09.168Z,56.25
2018-05-29T03:53:09.206Z,56.25
2018-05-29T03:54:09.246Z,56.25
2018-05-29T03:55:09.384Z,61.88
2018-05-29T03:56:09.322Z,61.88
2018-05-29T03:57:09.362Z,67.50
2018-05-29T03:58:09.400Z,67.50
2018-05-29T03:59:09.448Z,67.50
2018-05-29T04:00:09.477Z,67.50
2018-05-29T04:01:09.515Z,67.50
2018-05-29T04:02:09.606Z,73.13
2018-05-29T04:03:09.593Z,73.13
2018-05-29T04:04:09.633Z,73.13
2018-05-29T04:05:09.672Z,73.13
2018-05-29T04:06:09.709Z,78.75
2018-05-29T04:07:09.749Z,78.75
2018-05-29T04:08:09.791Z,78.75
2018-05-29T04:09:09.826Z,84.38
2018-05-29T04:10:09.865Z,84.38
2018-05-29T04:11:09.905Z,84.38
2018-05-29T04:12:09.944Z,84.38
2018-05-29T04:13:09.985Z,84.38
2018-05-29T04:14:10.021Z,90.00
2018-05-29T04:15:10.057Z,90.00
2018-05-29T04:16:10.100Z,90.00
2018-05-29T04:17:10.137Z,90.00
2018-05-29T04:18:10.180Z,90.00
2018-05-29T04:19:10.214Z,95.63
2018-05-29T04:20:10.255Z,95.63
2018-05-29T04:21:10.293Z,95.63
2018-05-29T04:22:10.331Z,95.63
2018-05-29T04:23:10.372Z,95.63
2018-05-29T04:24:10.408Z,95.63
2018-05-29T04:25:10.449Z,95.63
2018-05-29T04:26:10.491Z,101.25
2018-05-29T04:27:10.532Z,101.25
2018-05-29T04:28:10.564Z,101.25
2018-05-29T04:29:10.603Z,101.25
2018-05-29T04:30:10.643Z,101.25
2018-05-29T04:31:10.682Z,106.88
2018-05-29T04:32:10.727Z,106.88
2018-05-29T04:33:10.761Z,106.88
2018-05-29T04:34:10.802Z,106.88
2018-05-29T04:35:10.840Z,106.88
2018-05-29T04:36:10.879Z,112.50
2018-05-29T04:37:10.917Z,112.50
2018-05-29T04:38:10.957Z,112.50
2018-05-29T04:39:10.995Z,112.50
2018-05-29T04:40:11.034Z,112.50
2018-05-29T04:41:11.074Z,118.13
2018-05-29T04:42:11.116Z,118.13
2018-05-29T04:43:11.152Z,118.13
2018-05-29T04:44:11.192Z,118.13
2018-05-29T04:45:11.235Z,118.13
2018-05-29T04:46:11.270Z,118.13
2018-05-29T04:47:11.313Z,123.75
2018-05-29T04:48:11.350Z,123.75
2018-05-29T04:49:11.389Z,123.75
2018-05-29T04:50:11.428Z,123.75
2018-05-29T04:51:11.470Z,123.75
2018-05-29T04:52:11.512Z,123.75
2018-05-29T04:53:11.548Z,129.38
2018-05-29T04:54:11.596Z,129.38
2018-05-29T04:55:11.629Z,129.38
2018-05-29T04:56:11.669Z,129.38
2018-05-29T04:57:11.704Z,129.38
2018-05-29T04:58:11.746Z,129.38
2018-05-29T04:59:11.786Z,135.00
2018-05-29T05:00:11.823Z,135.00
2018-05-29T05:01:11.864Z,135.00
2018-05-29T05:02:11.902Z,135.00
2018-05-29T05:03:11.943Z,135.00
2018-05-29T05:04:11.981Z,140.63
2018-05-29T05:05:12.021Z,140.63
2018-05-29T05:06:12.063Z,140.63
2018-05-29T05:07:12.102Z,140.63
2018-05-29T05:08:12.140Z,140.63
2018-05-29T05:09:12.180Z,146.25
2018-05-29T05:10:12.224Z,146.25
2018-05-29T05:11:12.261Z,146.25
2018-05-29T05:12:12.305Z,146.25
2018-05-29T05:13:12.344Z,151.88
2018-05-29T05:14:12.382Z,151.88
2018-05-29T05:15:12.420Z,151.88
2018-05-29T05:16:12.460Z,151.88
2018-05-29T05:17:12.498Z,163.13
2018-05-29T05:18:12.545Z,157.50
2018-05-29T05:19:12.579Z,157.50
2018-05-29T05:20:12.645Z,157.50
2018-05-29T05:21:12.663Z,157.50
2018-05-29T05:22:12.701Z,163.13
2018-05-29T05:23:12.739Z,163.13
2018-05-29T05:24:12.780Z,163.13
2018-05-29T05:25:12.822Z,163.13
2018-05-29T05:26:12.864Z,157.50
2018-05-29T05:27:12.903Z,163.13
2018-05-29T05:28:12.939Z,163.13
2018-05-29T05:29:12.980Z,163.13
2018-05-29T05:30:13.020Z,163.13
2018-05-29T05:31:13.063Z,168.75
2018-05-29T05:32:13.099Z,168.75
2018-05-29T05:33:13.139Z,168.75
2018-05-29T05:34:13.181Z,168.75
2018-05-29T05:35:13.223Z,168.75
2018-05-29T05:36:13.262Z,168.75
2018-05-29T05:37:13.301Z,168.75
2018-05-29T05:38:13.341Z,168.75
2018-05-29T05:39:13.381Z,174.38
2018-05-29T05:40:13.423Z,174.38
2018-05-29T05:41:13.470Z,174.38
2018-05-29T05:42:13.504Z,174.38
2018-05-29T05:43:13.592Z,174.38
2018-05-29T05:44:13.594Z,174.38
2018-05-29T05:45:13.625Z,174.38
2018-05-29T05:46:13.665Z,174.38
2018-05-29T05:47:13.716Z,174.38
2018-05-29T05:48:13.748Z,174.38
2018-05-29T05:49:13.787Z,174.38
2018-05-29T05:50:13.828Z,174.38
2018-05-29T05:51:13.870Z,180.00
2018-05-29T05:52:13.911Z,180.00
2018-05-29T05:53:13.951Z,180.00
2018-05-29T05:54:13.995Z,180.00
2018-05-29T05:55:14.032Z,180.00
2018-05-29T05:56:14.073Z,180.00
2018-05-29T05:57:14.114Z,180.00
2018-05-29T05:58:14.161Z,180.00
2018-05-29T05:59:14.195Z,180.00
2018-05-29T06:00:14.236Z,180.00
2018-05-29T06:01:14.283Z,180.00
2018-05-29T06:02:14.320Z,180.00
2018-05-29T06:03:14.359Z,180.00
2018-05-29T06:04:14.402Z,180.00
2018-05-29T06:05:14.476Z,180.00
2018-05-29T06:06:14.483Z,180.00
2018-05-29T06:07:14.526Z,185.63
2018-05-29T06:08:14.566Z,185.63
2018-05-29T06:09:14.608Z,185.63
2018-05-29T06:10:14.650Z,185.63
2018-05-29T06:12:14.739Z,180.00
2018-05-29T06:13:14.775Z,180.00
2018-05-29T06:14:14.819Z,185.63
2018-05-29T06:15:14.859Z,185.63
2018-05-29T06:16:14.901Z,185.63
2018-05-29T06:17:14.941Z,185.63
2018-05-29T06:18:14.988Z,185.63
2018-05-29T06:19:15.033Z,185.63
2018-05-29T06:20:15.065Z,185.63
2018-05-29T06:21:15.107Z,185.63
2018-05-29T06:22:15.149Z,185.63
2018-05-29T06:23:15.191Z,185.63
2018-05-29T06:24:15.249Z,185.63
2018-05-29T06:25:15.281Z,185.63
2018-05-29T06:26:15.315Z,185.63
2018-05-29T06:27:15.356Z,191.25
2018-05-29T06:28:15.397Z,191.25
2018-05-29T06:29:15.439Z,191.25
2018-05-29T06:30:15.482Z,191.25
2018-05-29T06:31:15.524Z,191.25
2018-05-29T06:32:15.565Z,191.25
2018-05-29T06:33:15.608Z,191.25
2018-05-29T06:34:15.649Z,191.25
2018-05-29T06:35:15.692Z,196.88
2018-05-29T06:36:15.732Z,196.88
2018-05-29T06:37:15.775Z,196.88
2018-05-29T06:38:15.864Z,196.88
2018-05-29T06:39:15.868Z,196.88
2018-05-29T06:40:15.903Z,196.88
2018-05-29T06:41:15.944Z,191.25
2018-05-29T06:42:15.995Z,191.25
2018-05-29T06:43:16.029Z,191.25
2018-05-29T06:44:16.080Z,191.25
2018-05-29T06:45:16.124Z,191.25
2018-05-29T06:46:16.158Z,191.25
2018-05-29T06:47:16.199Z,196.88
2018-05-29T06:48:16.246Z,191.25
2018-05-29T06:49:16.285Z,191.25
2018-05-29T06:50:16.327Z,191.25
2018-05-29T06:51:16.370Z,191.25
2018-05-29T06:52:16.427Z,191.25
2018-05-29T06:53:16.456Z,196.88
2018-05-29T06:54:16.497Z,196.88
2018-05-29T06:55:16.539Z,196.88
2018-05-29T06:56:16.582Z,196.88
2018-05-29T06:57:16.624Z,196.88
2018-05-29T06:58:16.668Z,196.88
2018-05-29T06:59:16.708Z,196.88
2018-05-29T07:00:16.751Z,196.88
2018-05-29T07:01:16.795Z,196.88
2018-05-29T07:02:16.838Z,202.50
2018-05-29T07:03:16.887Z,202.50
2018-05-29T07:04:16.924Z,202.50
2018-05-29T07:05:17.069Z,202.50
2018-05-29T07:06:17.009Z,202.50
2018-05-29T07:07:17.055Z,202.50
2018-05-29T07:08:17.093Z,202.50
2018-05-29T07:09:17.138Z,202.50
2018-05-29T07:10:17.182Z,202.50
2018-05-29T07:11:17.227Z,202.50
2018-05-29T07:12:17.269Z,202.50
2018-05-29T07:13:17.310Z,208.13
2018-05-29T07:14:17.354Z,208.13
2018-05-29T07:15:17.395Z,208.13
2018-05-29T07:16:17.437Z,208.13
2018-05-29T07:17:17.482Z,208.13
2018-05-29T07:18:17.524Z,208.13
2018-05-29T07:19:17.567Z,208.13
2018-05-29T07:20:17.610Z,208.13
2018-05-29T07:21:17.654Z,208.13
2018-05-29T07:22:17.695Z,208.13
2018-05-29T07:23:17.740Z,208.13
2018-05-29T07:24:17.783Z,202.50
2018-05-29T07:25:17.826Z,202.50
2018-05-29T07:26:17.868Z,208.13
2018-05-29T07:27:17.937Z,208.13
2018-05-29T07:28:17.958Z,208.13
2018-05-29T07:29:17.998Z,208.13
2018-05-29T07:30:18.041Z,208.13
2018-05-29T07:31:18.084Z,208.13
2018-05-29T07:32:18.131Z,208.13
2018-05-29T07:33:18.174Z,208.13
2018-05-29T07:34:18.216Z,208.13
2018-05-29T07:35:18.360Z,208.13
2018-05-29T07:36:18.302Z,208.13
2018-05-29T07:37:18.344Z,213.75
2018-05-29T07:38:18.390Z,208.13
2018-05-29T07:39:18.439Z,208.13
2018-05-29T07:40:18.474Z,208.13
2018-05-29T07:41:18.517Z,208.13
2018-05-29T07:42:18.562Z,208.13
2018-05-29T07:43:18.611Z,208.13
2018-05-29T07:44:18.654Z,208.13
2018-05-29T07:45:18.817Z,208.13
2018-05-29T07:46:18.736Z,202.50
2018-05-29T07:47:18.779Z,202.50
2018-05-29T07:48:18.821Z,202.50
2018-05-29T07:49:18.867Z,202.50
2018-05-29T07:50:18.909Z,202.50
2018-05-29T07:51:18.963Z,202.50
2018-05-29T07:52:18.995Z,202.50
2018-05-29T07:53:19.045Z,202.50
2018-05-29T07:54:19.083Z,202.50
2018-05-29T07:55:19.125Z,202.50
2018-05-29T07:56:19.171Z,202.50
2018-05-29T07:57:19.214Z,202.50
2018-05-29T07:58:19.260Z,202.50
2018-05-29T07:59:19.302Z,202.50
2018-05-29T08:00:19.345Z,202.50
2018-05-29T08:01:19.388Z,202.50
2018-05-29T08:02:19.433Z,202.50
2018-05-29T08:03:19.484Z,202.50
2018-05-29T08:04:19.520Z,202.50
2018-05-29T08:05:19.572Z,202.50
2018-05-29T08:06:19.647Z,202.50
2018-05-29T08:07:19.658Z,208.13
2018-05-29T08:08:19.697Z,208.13
2018-05-29T08:09:19.747Z,208.13
2018-05-29T08:11:19.827Z,208.13
2018-05-29T08:12:19.873Z,208.13
2018-05-29T08:13:19.914Z,208.13
2018-05-29T08:14:19.959Z,208.13
2018-05-29T08:15:20.003Z,208.13
2018-05-29T08:18:20.135Z,208.13
2018-05-29T08:19:20.177Z,208.13
2018-05-29T08:20:20.224Z,208.13
2018-05-29T08:21:20.267Z,208.13
2018-05-29T08:22:20.311Z,208.13
2018-05-29T08:23:20.355Z,208.13
2018-05-29T08:24:20.400Z,208.13
2018-05-29T08:25:20.444Z,208.13
2018-05-29T08:26:20.488Z,208.13
2018-05-29T08:27:20.532Z,208.13
2018-05-29T08:28:20.576Z,208.13
2018-05-29T08:29:20.621Z,208.13
2018-05-29T08:30:20.666Z,208.13
2018-05-29T08:31:20.708Z,208.13
2018-05-29T08:32:20.751Z,208.13
2018-05-29T08:33:20.803Z,208.13
2018-05-29T08:34:20.851Z,208.13
2018-05-29T08:35:20.899Z,208.13
2018-05-29T08:37:20.974Z,208.13
2018-05-29T08:38:21.024Z,208.13
2018-05-29T08:39:21.122Z,208.13
2018-05-29T08:40:21.109Z,208.13
2018-05-29T08:41:21.154Z,208.13
2018-05-29T08:42:21.199Z,208.13
2018-05-29T08:43:21.244Z,208.13
2018-05-29T08:44:21.287Z,208.13
2018-05-29T08:45:21.335Z,208.13
2018-05-29T08:46:21.418Z,208.13
2018-05-29T08:47:21.419Z,208.13
2018-05-29T08:48:21.464Z,208.13
2018-05-29T08:49:21.514Z,208.13
2018-05-29T08:50:21.554Z,208.13
2018-05-29T08:51:21.599Z,208.13
2018-05-29T08:52:21.642Z,208.13
2018-05-29T08:53:21.697Z,208.13
2018-05-29T08:54:21.733Z,208.13
2018-05-29T08:55:21.776Z,208.13
2018-05-29T08:56:21.821Z,208.13
2018-05-29T08:57:21.867Z,208.13
2018-05-29T08:58:21.913Z,208.13
2018-05-29T08:59:21.955Z,208.13
2018-05-29T09:00:22.001Z,208.13
2018-05-29T09:01:22.043Z,213.75
2018-05-29T09:02:22.090Z,213.75
2018-05-29T09:03:22.157Z,213.75
2018-05-29T09:04:22.269Z,208.13
2018-05-29T09:05:22.239Z,208.13
2018-05-29T09:06:22.273Z,208.13
2018-05-29T09:07:22.316Z,208.13
2018-05-29T09:08:22.357Z,208.13
2018-05-29T09:09:22.406Z,208.13
2018-05-29T09:10:22.450Z,208.13
2018-05-29T09:11:22.501Z,208.13
2018-05-29T09:12:22.537Z,208.13
2018-05-29T09:13:22.584Z,208.13
2018-05-29T09:14:22.627Z,208.13
2018-05-29T09:15:22.671Z,208.13
2018-05-29T09:16:22.716Z,202.50
2018-05-29T09:17:22.762Z,202.50
2018-05-29T09:18:22.807Z,202.50
2018-05-29T09:19:22.852Z,202.50
2018-05-29T09:20:22.897Z,208.13
2018-05-29T09:21:22.940Z,208.13
2018-05-29T09:22:22.987Z,208.13
2018-05-29T09:23:23.029Z,208.13
2018-05-29T09:24:23.076Z,208.13
2018-05-29T09:25:23.119Z,208.13
2018-05-29T09:26:23.167Z,213.75
2018-05-29T09:27:23.211Z,213.75
2018-05-29T09:28:23.256Z,213.75
2018-05-29T09:29:23.305Z,213.75
2018-05-29T09:30:23.345Z,213.75
2018-05-29T09:31:23.390Z,213.75
2018-05-29T09:32:23.445Z,213.75
2018-05-29T09:33:23.488Z,213.75
2018-05-29T09:34:23.578Z,213.75
2018-05-29T09:35:23.609Z,213.75
2018-05-29T09:36:23.616Z,213.75
2018-05-29T09:37:23.682Z,213.75
2018-05-29T09:38:23.705Z,213.75
2018-05-29T09:39:23.750Z,213.75
2018-05-29T09:40:23.844Z,213.75
2018-05-29T09:41:23.844Z,213.75
2018-05-29T09:42:23.892Z,213.75
2018-05-29T09:43:23.931Z,213.75
2018-05-29T09:44:23.981Z,213.75
2018-05-29T09:45:24.029Z,213.75
2018-05-29T09:46:24.067Z,213.75
2018-05-29T09:47:24.115Z,213.75
2018-05-29T09:48:24.253Z,213.75
2018-05-29T09:49:24.202Z,213.75
2018-05-29T09:50:24.248Z,213.75
2018-05-29T09:51:24.292Z,213.75
2018-05-29T09:52:24.339Z,213.75
2018-05-29T09:53:24.392Z,213.75
2018-05-29T09:54:24.451Z,213.75
2018-05-29T09:55:24.478Z,213.75
2018-05-29T09:56:24.521Z,213.75
2018-05-29T09:57:24.570Z,213.75
2018-05-29T09:58:24.612Z,213.75
2018-05-29T09:59:24.655Z,213.75
2018-05-29T10:00:24.699Z,213.75
2018-05-29T10:01:24.747Z,213.75
2018-05-29T10:02:24.793Z,213.75
2018-05-29T10:03:24.836Z,213.75
2018-05-29T10:04:24.882Z,213.75
2018-05-29T10:05:24.926Z,219.38
2018-05-29T10:06:24.981Z,219.38
2018-05-29T10:07:25.018Z,225.00
2018-05-29T10:08:25.068Z,225.00
2018-05-29T10:09:25.108Z,225.00
2018-05-29T10:10:25.154Z,219.38
2018-05-29T10:11:25.199Z,219.38
2018-05-29T10:12:25.245Z,219.38
2018-05-29T10:13:25.289Z,219.38
2018-05-29T10:14:25.412Z,219.38
2018-05-29T10:15:25.381Z,225.00
2018-05-29T10:16:25.426Z,225.00
2018-05-29T10:17:25.497Z,225.00
2018-05-29T10:18:25.517Z,225.00
2018-05-29T10:19:25.631Z,225.00
2018-05-29T10:20:25.607Z,225.00
2018-05-29T10:21:25.653Z,225.00
2018-05-29T10:22:25.699Z,225.00
2018-05-29T10:23:25.790Z,230.63
2018-05-29T10:24:25.793Z,230.63
2018-05-29T10:25:25.844Z,241.88
2018-05-29T10:26:25.882Z,236.25
2018-05-29T10:27:25.928Z,236.25
2018-05-29T10:28:25.974Z,241.88
2018-05-29T10:29:26.019Z,230.63
2018-05-29T10:30:26.064Z,236.25
2018-05-29T10:31:26.117Z,241.88
2018-05-29T10:32:26.158Z,247.50
2018-05-29T10:33:26.198Z,270.00
2018-05-29T10:34:26.248Z,286.88
2018-05-29T10:35:26.290Z,331.88
2018-05-29T10:36:26.335Z,382.50
2018-05-29T10:37:26.384Z,405.00
2018-05-29T10:38:26.431Z,416.25
2018-05-29T10:39:26.472Z,382.50
2018-05-29T10:40:26.519Z,348.75
2018-05-29T10:41:26.565Z,309.38
2018-05-29T10:42:26.610Z,286.88
2018-05-29T10:43:26.654Z,270.00
2018-05-29T10:44:26.704Z,258.75
2018-05-29T10:45:26.744Z,253.13
2018-05-29T10:46:26.791Z,247.50
2018-05-29T10:47:26.840Z,247.50
2018-05-29T10:48:26.883Z,247.50
2018-05-29T10:49:26.929Z,247.50
2018-05-29T10:50:26.975Z,247.50
2018-05-29T10:51:27.020Z,247.50
2018-05-29T10:52:27.096Z,247.50
2018-05-29T10:53:27.116Z,247.50
2018-05-29T10:54:27.166Z,253.13
2018-05-29T10:55:27.203Z,253.13
2018-05-29T10:56:27.249Z,253.13
2018-05-29T10:57:27.294Z,247.50
2018-05-29T10:58:27.340Z,247.50
2018-05-29T10:59:27.390Z,247.50
2018-05-29T11:00:27.441Z,241.88
2018-05-29T11:01:27.477Z,241.88
2018-05-29T11:02:27.522Z,241.88
2018-05-29T11:03:27.569Z,241.88
2018-05-29T11:04:27.616Z,247.50
2018-05-29T11:05:27.721Z,253.13
2018-05-29T11:06:27.709Z,253.13
2018-05-29T11:07:27.755Z,258.75
2018-05-29T11:08:27.799Z,264.38
2018-05-29T11:09:27.845Z,270.00
2018-05-29T11:10:27.893Z,270.00
2018-05-29T11:11:27.937Z,270.00
2018-05-29T11:12:27.984Z,264.38
2018-05-29T11:13:28.030Z,264.38
2018-05-29T11:14:28.077Z,264.38
2018-05-29T11:15:28.122Z,264.38
2018-05-29T11:16:28.171Z,264.38
2018-05-29T11:17:28.223Z,270.00
2018-05-29T11:18:28.265Z,270.00
2018-05-29T11:19:28.307Z,275.63
2018-05-29T11:20:28.355Z,275.63
2018-05-29T11:21:28.404Z,275.63
2018-05-29T11:22:28.450Z,275.63
2018-05-29T11:23:28.493Z,275.63
2018-05-29T11:24:28.552Z,275.63
2018-05-29T11:25:28.586Z,281.25
2018-05-29T11:26:28.631Z,281.25
2018-05-29T11:27:28.679Z,292.50
2018-05-29T11:28:28.724Z,286.88
2018-05-29T11:29:28.774Z,286.88
2018-05-29T11:30:28.817Z,281.25
2018-05-29T11:31:28.864Z,303.75
2018-05-29T11:32:28.911Z,309.38
2018-05-29T11:33:28.957Z,309.38
2018-05-29T11:34:29.003Z,309.38
2018-05-29T11:35:29.049Z,303.75
2018-05-29T11:36:29.358Z,309.38
2018-05-29T11:37:29.144Z,326.25
2018-05-29T11:38:29.191Z,331.88
2018-05-29T11:39:29.238Z,326.25
2018-05-29T11:40:29.282Z,315.00
2018-05-29T11:41:29.328Z,315.00
2018-05-29T11:42:29.405Z,320.63
2018-05-29T11:43:29.478Z,320.63
2018-05-29T11:44:29.470Z,337.50
2018-05-29T11:45:29.525Z,348.75
2018-05-29T11:46:29.561Z,343.13
2018-05-29T11:47:29.609Z,337.50
2018-05-29T11:48:29.679Z,331.88
2018-05-29T11:49:29.852Z,320.63
2018-05-29T11:50:29.750Z,315.00
2018-05-29T11:51:29.796Z,309.38
2018-05-29T11:52:29.841Z,309.38
2018-05-29T11:53:29.896Z,309.38
2018-05-29T11:54:29.939Z,309.38
2018-05-29T11:55:29.984Z,309.38
2018-05-29T11:56:30.034Z,303.75
2018-05-29T11:57:30.091Z,303.75
2018-05-29T11:58:30.120Z,303.75
2018-05-29T11:59:30.168Z,303.75
2018-05-29T12:00:30.219Z,309.38
2018-05-29T12:01:30.260Z,309.38
2018-05-29T12:02:30.307Z,309.38
2018-05-29T12:03:30.351Z,315.00
2018-05-29T12:04:30.400Z,309.38
2018-05-29T12:05:30.446Z,309.38
2018-05-29T12:06:30.493Z,315.00
2018-05-29T12:07:30.547Z,303.75
2018-05-29T12:08:30.592Z,326.25
2018-05-29T12:09:30.633Z,348.75
2018-05-29T12:10:30.678Z,343.13
2018-05-29T12:11:30.726Z,343.13
2018-05-29T12:12:30.777Z,348.75
2018-05-29T12:13:30.820Z,343.13
2018-05-29T12:14:30.865Z,326.25
2018-05-29T12:15:30.912Z,298.13
2018-05-29T12:16:30.976Z,281.25
2018-05-29T12:17:31.007Z,292.50
2018-05-29T12:18:31.053Z,326.25
2018-05-29T12:19:31.098Z,360.00
2018-05-29T12:20:31.144Z,393.75
2018-05-29T12:21:31.193Z,416.25
2018-05-29T12:22:31.237Z,444.38
2018-05-29T12:23:31.287Z,450.00
2018-05-29T12:24:31.331Z,455.63
2018-05-29T12:25:31.381Z,466.88
2018-05-29T12:26:31.525Z,450.00
2018-05-29T12:27:31.479Z,433.13
2018-05-29T12:28:31.517Z,421.88
2018-05-29T12:29:31.565Z,427.50
2018-05-29T12:30:31.612Z,416.25
2018-05-29T12:31:31.658Z,427.50
2018-05-29T12:32:31.706Z,461.25
2018-05-29T12:33:31.809Z,500.63
2018-05-29T12:34:31.802Z,517.50
2018-05-29T12:35:31.875Z,534.38
2018-05-29T12:36:31.895Z,523.13
2018-05-29T12:37:31.945Z,517.50
2018-05-29T12:38:31.991Z,506.25
2018-05-29T12:39:32.039Z,483.75
2018-05-29T12:40:32.089Z,495.00
2018-05-29T12:41:32.133Z,506.25
2018-05-29T12:42:32.182Z,523.13
2018-05-29T12:43:32.227Z,523.13
2018-05-29T12:44:32.279Z,517.50
2018-05-29T12:45:32.325Z,511.88
2018-05-29T12:46:32.372Z,495.00
2018-05-29T12:47:32.419Z,483.75
2018-05-29T12:48:32.472Z,466.88
2018-05-29T12:49:32.518Z,444.38